• Join FlightAware (Why Join?)
  • Login
  • US Flag 
03:46PM EDT


 

Airport Tracker/Info


-or-


 

Live Flight TrackerFlight Track Log ✈ SKW5655 ✈ 05-Mar-2012 ✈ KSFO - KBUR

Flight Track Log - Related Links

Times and Time Zones

All times are in EST time to prevent confusion due to time zone crossing. See the SKW5655 flight status page for this flight to view local times or setup timezone preferences in your user account.

Time Position Orientation Groundspeed Altitude Reporting Facility
EST Latitude Longitude Course Direction KTS MPH feet Rate Location/Type
10:52AM 37.5470 -122.3127 344° North  Level FlightAware Approximate
10:54AM 37.7000 -122.3667 270° West 220 253 3,500  Level Northern Cal TRACON
10:55AM 37.7000 -122.4500 180° South 273 314 6,200 3,300 Climbing Northern Cal TRACON
10:55AM 37.6333 -122.4500 155° Southeast 283 326 9,500 2,940 Climbing Northern Cal TRACON
10:56AM 37.5500 -122.4000 140° Southeast 310 357 11,800 2,100 Climbing Northern Cal TRACON
10:59AM 37.3953 -122.2389 140° Southeast 348 400 16,400 1,860 Climbing Oakland Center
11:00AM 37.3167 -122.1564 139° Southeast 353 406 17,900 4,260 Climbing Oakland Center
11:01AM 37.2364 -122.0692 139° Southeast 368 423 25,000 1,380 Climbing Oakland Center
11:02AM 37.1517 -121.9767 141° Southeast 389 448 20,700 -1,500 Descending Oakland Center
11:03AM 37.0647 -121.8869 140° Southeast 404 465 22,000 1,200 Climbing Oakland Center
11:04AM 36.9758 -121.7925 140° Southeast 404 465 23,200 1,080 Climbing Oakland Center
11:05AM 36.8867 -121.6981 140° Southeast 414 476 24,200 840 Climbing Oakland Center
11:06AM 36.7953 -121.6039 139° Southeast 420 483 24,900 360 Climbing Oakland Center
11:07AM 36.7019 -121.5044 140° Southeast 426 490 25,000  Climbing Oakland Center
11:08AM 36.6022 -121.4003 140° Southeast 451 519 25,000  Level Oakland Center
11:09AM 36.5003 -121.2939 140° Southeast 466 536 25,000  Level Oakland Center
11:10AM 36.3983 -121.1878 141° Southeast 479 551 25,000  Level Oakland Center
11:11AM 36.2942 -121.0817 140° Southeast 484 557 25,000  Level Oakland Center
11:12AM 36.1303 -120.9139 140° Southeast 480 552 25,000  Level Los Angeles Center
11:13AM 36.0278 -120.8078 140° Southeast 480 552 25,000  Level Los Angeles Center
11:14AM 35.9275 -120.7044 140° Southeast 480 552 25,000  Level Los Angeles Center
11:15AM 35.8250 -120.5989 141° Southeast 480 552 25,000  Level Los Angeles Center
11:16AM 35.7225 -120.4958 142° Southeast 480 552 25,000  Level Los Angeles Center
11:17AM 35.6214 -120.3986 141° Southeast 480 552 25,000  Level Los Angeles Center
11:18AM 35.5206 -120.2989 140° Southeast 475 547 25,000 -360 Level Los Angeles Center
11:19AM 35.4197 -120.1967 139° Southeast 475 547 24,400 -540 Descending Los Angeles Center
11:20AM 35.3108 -120.0819 141° Southeast 475 547 24,000 -240 Descending Los Angeles Center
11:21AM 35.2097 -119.9803 141° Southeast 475 547 24,000  Level Los Angeles Center
11:22AM 35.1086 -119.8817 134° Southeast 475 547 24,000  Level Los Angeles Center
11:23AM 35.0181 -119.7683 132° Southeast 475 547 24,000 -60 Level Los Angeles Center
11:24AM 34.9297 -119.6481 132° Southeast 469 540 23,900 -1,140 Descending Los Angeles Center
11:25AM 34.8456 -119.5331 133° Southeast 469 540 21,800 -2,580 Descending Los Angeles Center
11:26AM 34.7650 -119.4286 131° Southeast 443 510 18,900 -2,880 Descending Los Angeles Center
11:27AM 34.6944 -119.3297 133° Southeast 410 472 16,100 -2,460 Descending Los Angeles Center
11:28AM 34.6258 -119.2414 135° Southeast 378 435 14,000 -2,340 Descending Los Angeles Center
11:29AM 34.5631 -119.1658 131° Southeast 342 394 11,500 -1,500 Descending Los Angeles Center
11:30AM 34.5125 -119.0958 131° Southeast 327 376 11,000 -300 Descending Los Angeles Center
11:31AM 34.4581 -119.0208 134° Southeast 305 351 11,000 -600 Level Los Angeles Center
11:32AM 34.4014 -118.9508 121° Southeast 294 338 9,800 -1,260 Descending Los Angeles Center
11:33AM 34.3614 -118.8692 114° Southeast 289 333 8,500 -1,320 Descending Los Angeles Center
11:34AM 34.3300 -118.7825 113° Southeast 283 326 7,200 -1,260 Descending Los Angeles Center
11:35AM 34.3025 -118.7036 111° Southeast 269 310 6,000 -1,140 Descending Los Angeles Center
11:36AM 34.2769 -118.6250 113° Southeast 246 283 5,000 -960 Descending Los Angeles Center
11:37AM 34.2533 -118.5564 121° Southeast 229 264 4,100 -900 Descending Los Angeles Center
11:38AM 34.2253 -118.5003 121° Southeast 212 244 3,200 -900 Descending Los Angeles Center